Time;durP1;ratioP1;P1;durP2;ratioP2;P2;SDS_P1;SDS_P2;PMS_P1;PMS_P2;Temp;Humidity;BMP_temperature;BMP_pressure;BME280_temperature;BME280_humidity;BME280_pressure;Samples;Min_cycle;Max_cycle;Signal;HPM_P1;HPM_P2
2024/01/13 00:00:44;;;;;;;54.63;36.92;;;;;;;4.20;72.09;99721.13;5091674;28;20020;-47
2024/01/13 00:03:10;;;;;;;52.67;36.70;;;;;;;4.11;73.04;99721.09;5091639;28;20020;-46
2024/01/13 00:05:35;;;;;;;52.45;32.65;;;;;;;4.35;74.52;99710.34;5092916;28;20017;-46
2024/01/13 00:08:01;;;;;;;51.80;33.58;;;;;;;4.62;74.24;99698.44;5091588;28;20150;-46
2024/01/13 00:10:27;;;;;;;61.78;45.45;;;;;;;4.78;73.87;99706.50;5092893;28;20020;-46
2024/01/13 00:12:52;;;;;;;51.20;34.42;;;;;;;4.96;72.44;99701.44;5091351;28;20028;-47
2024/01/13 00:15:19;;;;;;;52.60;35.30;;;;;;;5.04;71.78;99703.34;5092490;28;20093;-47
2024/01/13 00:17:44;;;;;;;52.17;32.63;;;;;;;5.03;72.71;99702.53;5091405;28;20028;-46
2024/01/13 00:20:10;;;;;;;55.60;34.50;;;;;;;5.10;74.29;99692.38;5091361;28;20523;-46
2024/01/13 00:22:36;;;;;;;49.13;33.80;;;;;;;5.24;74.45;99701.53;5092662;28;20023;-47
2024/01/13 00:25:02;;;;;;;54.83;34.83;;;;;;;5.37;74.19;99694.22;5092624;28;20024;-46
2024/01/13 00:27:28;;;;;;;51.92;32.88;;;;;;;5.39;72.12;99692.28;5092562;28;20048;-46
2024/01/13 00:29:54;;;;;;;54.50;35.10;;;;;;;5.34;71.70;99697.13;5092507;28;20053;-46
2024/01/13 00:32:19;;;;;;;54.97;35.50;;;;;;;5.27;71.28;99694.25;5092461;28;20062;-46
2024/01/13 00:34:45;;;;;;;50.55;35.67;;;;;;;5.26;71.13;99697.81;5092403;28;20402;-47
2024/01/13 00:37:11;;;;;;;53.00;35.10;;;;;;;5.10;68.97;99698.41;5091147;28;20525;-46
2024/01/13 00:39:37;;;;;;;51.85;34.10;;;;;;;4.84;70.24;99708.56;5092380;28;20027;-46
2024/01/13 00:42:02;;;;;;;49.92;35.83;;;;;;;4.91;72.63;99704.47;5092300;28;20024;-47
2024/01/13 00:44:28;;;;;;;52.22;34.83;;;;;;;4.75;72.82;99692.00;5090994;28;20046;-46
2024/01/13 00:46:54;;;;;;;54.30;37.65;;;;;;;4.80;72.39;99700.19;5090852;28;20383;-46
2024/01/13 00:49:20;;;;;;;61.65;41.33;;;;;;;4.57;71.18;99691.88;5092249;28;20020;-47
2024/01/13 00:51:45;;;;;;;58.42;39.33;;;;;;;4.23;71.96;99685.44;5090810;28;20016;-47
2024/01/13 00:54:11;;;;;;;62.65;41.58;;;;;;;3.96;72.04;99698.09;5090721;28;20308;-47
2024/01/13 00:56:37;;;;;;;56.55;37.05;;;;;;;3.85;73.70;99689.59;5090684;28;20028;-47
2024/01/13 00:59:03;;;;;;;53.60;35.60;;;;;;;4.08;75.21;99693.59;5092328;28;20101;-46
2024/01/13 01:01:28;;;;;;;55.05;37.10;;;;;;;4.35;75.42;99692.16;5092008;28;20098;-46
2024/01/13 01:03:54;;;;;;;54.55;38.40;;;;;;;4.50;74.48;99693.38;5092003;28;20024;-47
2024/01/13 01:06:20;;;;;;;52.40;33.45;;;;;;;4.67;75.01;99697.09;5091998;28;20028;-47
2024/01/13 01:08:46;;;;;;;55.28;36.83;;;;;;;4.48;74.03;99703.09;5091728;28;20028;-47
2024/01/13 01:11:12;;;;;;;55.83;36.80;;;;;;;4.31;74.91;99699.38;5091903;28;20020;-46
2024/01/13 01:13:38;;;;;;;60.63;41.50;;;;;;;4.25;75.33;99694.72;5092111;28;20448;-46
2024/01/13 01:16:04;;;;;;;64.25;43.53;;;;;;;4.08;75.42;99703.16;5090313;28;20048;-47
2024/01/13 01:18:30;;;;;;;65.72;44.72;;;;;;;3.74;73.47;99696.53;5090565;28;20565;-46
2024/01/13 01:20:55;;;;;;;60.83;43.03;;;;;;;3.49;75.09;99704.75;5090474;28;20034;-47
2024/01/13 01:23:21;;;;;;;59.25;39.60;;;;;;;3.48;76.37;99710.88;5090462;28;20123;-46
2024/01/13 01:25:47;;;;;;;63.80;38.03;;;;;;;3.58;77.83;99714.31;5091763;28;20020;-46
2024/01/13 01:28:12;;;;;;;57.70;39.90;;;;;;;3.69;77.96;99709.06;5091741;28;20030;-47
2024/01/13 01:30:38;;;;;;;60.45;40.65;;;;;;;3.88;77.32;99713.50;5091677;28;20029;-47
2024/01/13 01:33:04;;;;;;;59.00;40.63;;;;;;;4.33;76.66;99714.84;5091575;28;20024;-46
2024/01/13 01:35:30;;;;;;;60.55;41.97;;;;;;;4.68;73.67;99701.31;5090331;28;20393;-47
2024/01/13 01:37:56;;;;;;;58.67;43.20;;;;;;;4.81;73.18;99703.66;5090340;28;20587;-46
2024/01/13 01:40:24;;;;;;;59.40;37.75;;;;;;;4.92;71.48;99711.28;5090288;28;20039;-47
2024/01/13 01:42:50;;;;;;;58.85;36.95;;;;;;;4.93;72.45;99715.56;5091571;28;20026;-46
2024/01/13 01:45:16;;;;;;;59.35;41.90;;;;;;;4.91;73.01;99714.03;5091528;28;20472;-47
2024/01/13 01:47:43;;;;;;;54.33;39.92;;;;;;;4.92;73.06;99708.69;5090232;28;20024;-47
2024/01/13 01:50:10;;;;;;;108.05;89.95;;;;;;;4.98;73.09;99713.34;5091486;28;20527;-46
2024/01/13 01:52:38;;;;;;;62.45;40.47;;;;;;;5.03;73.03;99715.53;5090098;28;20111;-47
2024/01/13 01:55:05;;;;;;;56.55;38.92;;;;;;;4.52;70.08;99701.03;5091492;28;20525;-47
2024/01/13 01:57:35;;;;;;;58.17;42.25;;;;;;;4.26;70.70;99704.16;5091482;28;20171;-47
2024/01/13 02:00:01;;;;;;;61.97;44.40;;;;;;;4.35;70.90;99700.75;5091351;28;20149;-47
2024/01/13 02:02:27;;;;;;;57.63;41.00;;;;;;;4.48;71.78;99703.09;5090109;28;20024;-47
2024/01/13 02:04:54;;;;;;;54.85;36.60;;;;;;;4.60;72.38;99696.78;5091404;28;20107;-47
2024/01/13 02:07:20;;;;;;;61.97;40.45;;;;;;;4.85;72.22;99704.16;5091349;28;20024;-46
2024/01/13 02:09:47;;;;;;;61.85;42.42;;;;;;;4.98;72.90;99700.31;5091414;28;20028;-47
2024/01/13 02:12:12;;;;;;;57.60;38.25;;;;;;;5.09;71.20;99695.94;5091352;28;20027;-46
2024/01/13 02:14:38;;;;;;;55.13;35.65;;;;;;;5.05;69.12;99700.63;5091028;28;20032;-47
2024/01/13 02:17:04;;;;;;;59.38;41.38;;;;;;;5.05;68.66;99710.19;5090005;28;20061;-47
2024/01/13 02:19:32;;;;;;;64.60;42.22;;;;;;;5.09;69.39;99706.34;5091308;28;20370;-47
2024/01/13 02:21:58;;;;;;;56.63;38.13;;;;;;;5.21;69.97;99707.81;5094287;28;20016;-46
2024/01/13 02:24:24;;;;;;;61.53;43.22;;;;;;;5.23;69.73;99705.88;5093581;28;20055;-47
2024/01/13 02:26:50;;;;;;;71.28;52.95;;;;;;;5.24;69.14;99702.34;5093531;28;20067;-47
2024/01/13 02:29:16;;;;;;;62.20;41.08;;;;;;;5.27;70.51;99707.28;5094837;28;20020;-47
2024/01/13 02:31:41;;;;;;;57.08;45.35;;;;;;;5.29;71.44;99707.13;5093420;28;20024;-47
2024/01/13 02:34:07;;;;;;;58.20;39.53;;;;;;;5.18;68.67;99710.72;5094679;28;20039;-46
2024/01/13 02:36:33;;;;;;;65.47;47.80;;;;;;;4.83;69.15;99700.88;5093345;28;20056;-47
2024/01/13 02:38:58;;;;;;;64.63;48.08;;;;;;;4.71;70.88;99708.84;5094677;28;20025;-47
2024/01/13 02:41:24;;;;;;;58.63;44.38;;;;;;;4.54;70.89;99712.13;5094578;28;20031;-47
2024/01/13 02:43:50;;;;;;;60.85;41.42;;;;;;;4.18;70.01;99717.81;5094426;28;20494;-47
2024/01/13 02:46:16;;;;;;;62.90;45.45;;;;;;;4.00;71.01;99711.63;5094489;28;20435;-47
2024/01/13 02:48:46;;;;;;;58.63;40.72;;;;;;;3.96;72.03;99702.44;5093097;28;20027;-47
2024/01/13 02:51:14;;;;;;;62.28;42.63;;;;;;;4.22;71.23;99705.38;5093081;28;20494;-47
2024/01/13 02:53:40;;;;;;;60.53;44.70;;;;;;;4.45;70.77;99705.97;5094215;28;20024;-47
2024/01/13 02:56:06;;;;;;;71.53;55.03;;;;;;;4.61;70.00;99702.84;5094346;28;20035;-46
2024/01/13 02:58:33;;;;;;;64.00;42.38;;;;;;;4.78;70.68;99712.53;5092986;28;20056;-46
2024/01/13 03:00:58;;;;;;;61.97;44.38;;;;;;;4.92;70.91;99710.47;5094234;28;20111;-47
2024/01/13 03:03:24;;;;;;;68.65;47.03;;;;;;;4.83;70.09;99711.28;5092863;28;20198;-46
2024/01/13 03:05:50;;;;;;;60.72;43.42;;;;;;;4.82;71.23;99707.06;5094097;28;20052;-46
2024/01/13 03:08:16;;;;;;;112.47;87.55;;;;;;;4.68;71.43;99705.69;5092724;28;20081;-47
2024/01/13 03:10:41;;;;;;;97.60;72.18;;;;;;;4.67;72.42;99698.84;5093917;28;20375;-47
2024/01/13 03:13:07;;;;;;;84.50;61.55;;;;;;;4.77;73.88;99703.09;5093915;28;20436;-46
2024/01/13 03:15:33;;;;;;;87.60;66.70;;;;;;;4.86;73.65;99701.44;5099685;28;20048;-47
2024/01/13 03:17:59;;;;;;;94.43;68.72;;;;;;;4.86;73.25;99703.22;5093857;28;20044;-47
2024/01/13 03:20:24;;;;;;;102.32;84.63;;;;;;;4.64;73.70;99697.34;5092509;28;20024;-47
2024/01/13 03:22:50;;;;;;;117.88;93.05;;;;;;;4.57;74.12;99696.25;5092428;28;20497;-46
2024/01/13 03:25:16;;;;;;;77.75;55.00;;;;;;;4.65;75.20;99690.34;5093741;28;20020;-47
2024/01/13 03:27:41;;;;;;;74.32;51.67;;;;;;;4.66;75.35;99695.44;5093668;28;20039;-47
2024/01/13 03:30:07;;;;;;;68.85;47.85;;;;;;;4.61;75.15;99692.44;5092319;28;20024;-47
2024/01/13 03:32:33;;;;;;;66.22;44.65;;;;;;;4.36;74.42;99683.38;5093511;28;20028;-47
2024/01/13 03:34:59;;;;;;;65.72;45.03;;;;;;;4.18;74.73;99681.44;5092176;28;20024;-47
2024/01/13 03:37:25;;;;;;;63.08;43.03;;;;;;;4.35;76.10;99672.16;5093461;28;20042;-47
2024/01/13 03:39:50;;;;;;;62.85;42.17;;;;;;;4.59;76.27;99674.38;5093387;28;20047;-46
2024/01/13 03:42:16;;;;;;;62.55;41.58;;;;;;;4.70;75.73;99675.19;5092104;28;20546;-47
2024/01/13 03:44:42;;;;;;;62.95;43.63;;;;;;;4.74;73.53;99674.75;5093309;28;20020;-47
2024/01/13 03:47:08;;;;;;;59.80;44.78;;;;;;;4.56;73.15;99669.44;5091907;28;20035;-47
2024/01/13 03:49:33;;;;;;;68.03;42.70;;;;;;;4.24;70.52;99668.88;5093266;28;20043;-47
2024/01/13 03:51:59;;;;;;;64.55;42.38;;;;;;;4.08;71.25;99670.22;5091894;28;20036;-46
2024/01/13 03:54:25;;;;;;;60.58;41.10;;;;;;;4.25;71.19;99668.75;5091765;28;20177;-47
2024/01/13 03:56:51;;;;;;;62.80;44.78;;;;;;;4.42;72.27;99663.81;5093122;28;20047;-46
2024/01/13 03:59:17;;;;;;;63.13;42.90;;;;;;;4.53;72.55;99654.13;5093094;28;20070;-47
2024/01/13 04:01:43;;;;;;;59.60;44.95;;;;;;;4.32;71.99;99658.63;5092958;28;20028;-47
2024/01/13 04:04:09;;;;;;;66.18;44.45;;;;;;;4.00;72.39;99664.88;5093032;28;20097;-46
2024/01/13 04:06:44;;;;;;;62.60;42.58;;;;;;;4.01;73.27;99661.31;5092989;28;20036;-47
2024/01/13 04:09:09;;;;;;;65.22;45.53;;;;;;;3.91;73.74;99656.09;5093043;28;20063;-47
2024/01/13 04:11:35;;;;;;;62.95;44.10;;;;;;;4.00;73.69;99657.06;5092870;28;20059;-47
2024/01/13 04:14:01;;;;;;;61.35;40.65;;;;;;;4.04;73.60;99645.47;5091380;28;20520;-47
2024/01/13 04:16:27;;;;;;;69.40;49.60;;;;;;;3.96;73.13;99648.75;5092544;28;20513;-47
2024/01/13 04:18:53;;;;;;;59.35;40.75;;;;;;;3.85;72.99;99648.03;5092729;28;20024;-46
2024/01/13 04:21:18;;;;;;;66.53;44.15;;;;;;;3.67;73.22;99650.44;5091313;28;20405;-46
2024/01/13 04:23:44;;;;;;;72.63;52.35;;;;;;;3.47;73.46;99652.16;5091342;28;20028;-47
2024/01/13 04:26:10;;;;;;;63.20;44.13;;;;;;;3.29;74.59;99647.56;5091288;28;20032;-47
2024/01/13 04:28:36;;;;;;;67.13;44.83;;;;;;;3.28;75.16;99658.06;5092533;28;20016;-47
2024/01/13 04:31:02;;;;;;;67.07;45.60;;;;;;;3.16;74.77;99652.16;5091177;28;20390;-47
2024/01/13 04:33:28;;;;;;;62.15;43.17;;;;;;;3.33;74.76;99651.53;5091056;28;20024;-46
2024/01/13 04:35:54;;;;;;;65.82;43.38;;;;;;;3.38;75.01;99649.38;5091060;28;20077;-47
2024/01/13 04:38:23;;;;;;;72.25;49.55;;;;;;;3.20;73.70;99645.75;5092388;28;20016;-47
2024/01/13 04:40:49;;;;;;;77.30;54.33;;;;;;;3.19;75.67;99647.50;5091003;28;20086;-47
2024/01/13 04:43:15;;;;;;;72.57;53.08;;;;;;;3.49;76.19;99637.28;5091833;28;20039;-47
2024/01/13 04:45:40;;;;;;;64.88;43.38;;;;;;;3.59;75.03;99638.94;5090887;28;20024;-46
2024/01/13 04:48:06;;;;;;;68.93;43.92;;;;;;;3.50;75.64;99649.28;5092269;28;20099;-46
2024/01/13 04:50:32;;;;;;;65.15;46.88;;;;;;;3.63;76.11;99644.69;5090857;28;20050;-46
2024/01/13 04:52:58;;;;;;;63.03;43.13;;;;;;;3.71;75.77;99637.06;5090703;28;20100;-46
2024/01/13 04:55:23;;;;;;;65.20;46.05;;;;;;;3.74;76.33;99642.00;5092130;28;20024;-47
2024/01/13 04:57:49;;;;;;;65.65;45.33;;;;;;;3.72;75.86;99643.91;5092071;28;20013;-46
2024/01/13 05:00:16;;;;;;;86.50;65.72;;;;;;;3.75;75.55;99632.44;5092060;28;20032;-47
2024/01/13 05:02:42;;;;;;;68.32;47.03;;;;;;;3.90;74.57;99627.66;5092029;28;20016;-47
2024/01/13 05:05:08;;;;;;;72.72;50.15;;;;;;;4.07;72.79;99626.22;5091980;28;20077;-47
2024/01/13 05:07:36;;;;;;;77.68;61.42;;;;;;;4.16;72.77;99628.78;5091955;28;20028;-47
2024/01/13 05:10:04;;;;;;;62.47;45.65;;;;;;;4.36;72.16;99623.59;5092164;28;20020;-47
2024/01/13 05:12:29;;;;;;;64.03;48.75;;;;;;;4.51;71.05;99626.63;5091922;28;20107;-47
2024/01/13 05:14:55;;;;;;;120.32;103.15;;;;;;;4.60;70.95;99620.59;5090166;28;20115;-48
2024/01/13 05:17:21;;;;;;;112.00;86.28;;;;;;;4.73;70.96;99621.13;5091914;28;20039;-47
2024/01/13 05:19:46;;;;;;;73.30;53.67;;;;;;;4.71;69.90;99615.25;5091875;28;20019;-47
2024/01/13 05:22:12;;;;;;;63.78;46.03;;;;;;;4.65;69.13;99626.19;5091818;28;20047;-47
2024/01/13 05:24:38;;;;;;;68.13;48.22;;;;;;;4.64;69.20;99621.13;5091815;28;20035;-47
2024/01/13 05:27:04;;;;;;;66.78;49.80;;;;;;;4.63;69.06;99625.53;5091768;28;20178;-47
2024/01/13 05:29:30;;;;;;;66.07;47.38;;;;;;;4.71;68.81;99638.66;5091745;28;20016;-47
2024/01/13 05:31:56;;;;;;;65.28;45.78;;;;;;;4.65;68.47;99633.16;5091710;28;20032;-47
2024/01/13 05:34:21;;;;;;;71.68;54.60;;;;;;;4.56;67.12;99634.81;5091645;28;20394;-47
2024/01/13 05:36:47;;;;;;;73.15;57.50;;;;;;;4.48;67.66;99635.50;5090319;28;20508;-47
2024/01/13 05:39:13;;;;;;;67.10;48.25;;;;;;;4.42;67.72;99630.84;5073648;28;20020;-47
2024/01/13 05:41:39;;;;;;;64.80;43.33;;;;;;;4.41;66.67;99631.81;5091588;28;20032;-47
2024/01/13 05:44:05;;;;;;;70.10;50.58;;;;;;;4.40;67.49;99636.19;5091613;28;20016;-47
2024/01/13 05:46:30;;;;;;;69.68;53.03;;;;;;;4.59;68.22;99635.38;5091615;28;20509;-47
2024/01/13 05:48:56;;;;;;;71.05;53.72;;;;;;;4.72;68.28;99635.06;5090217;28;20036;-47
2024/01/13 05:51:22;;;;;;;60.25;44.03;;;;;;;4.75;67.76;99634.00;5090246;28;20389;-47
2024/01/13 05:53:48;;;;;;;69.50;47.40;;;;;;;4.70;66.39;99634.38;5091420;28;20028;-47
2024/01/13 05:56:13;;;;;;;74.35;57.22;;;;;;;4.47;66.10;99633.88;5093703;28;20024;-47
2024/01/13 05:58:42;;;;;;;68.68;48.95;;;;;;;4.35;66.33;99634.97;5094106;28;20048;-47
2024/01/13 06:01:07;;;;;;;63.15;45.92;;;;;;;4.36;67.22;99634.00;5095399;28;20031;-47
2024/01/13 06:03:33;;;;;;;93.70;74.75;;;;;;;4.27;67.10;99638.25;5094019;28;20020;-47
2024/01/13 06:05:59;;;;;;;70.22;52.17;;;;;;;4.23;67.94;99642.06;5095276;28;20036;-47
2024/01/13 06:08:24;;;;;;;65.28;46.25;;;;;;;4.18;67.13;99639.06;5095304;28;20031;-46
2024/01/13 06:10:50;;;;;;;69.18;46.92;;;;;;;4.06;67.27;99651.34;5093865;28;20035;-46
2024/01/13 06:13:18;;;;;;;65.20;45.85;;;;;;;3.94;67.42;99642.03;5093781;28;20035;-46
2024/01/13 06:15:44;;;;;;;60.13;43.63;;;;;;;3.96;68.25;99643.56;5094708;28;20576;-47
2024/01/13 06:18:10;;;;;;;72.90;51.60;;;;;;;4.13;69.56;99641.25;5094975;28;20056;-47
2024/01/13 06:20:36;;;;;;;61.75;43.78;;;;;;;4.22;68.76;99640.41;5093701;28;20020;-46
2024/01/13 06:23:01;;;;;;;62.00;45.10;;;;;;;4.17;68.57;99642.63;5094939;28;20063;-47
2024/01/13 06:25:28;;;;;;;65.90;46.83;;;;;;;4.20;68.78;99639.72;5094919;28;20024;-47
2024/01/13 06:27:54;;;;;;;61.45;45.58;;;;;;;4.19;68.30;99633.72;5094877;28;20024;-46
2024/01/13 06:30:20;;;;;;;69.95;47.25;;;;;;;4.26;69.12;99638.38;5094815;28;20035;-47
2024/01/13 06:32:45;;;;;;;62.33;42.03;;;;;;;4.30;68.84;99639.75;5094607;28;20027;-47
2024/01/13 06:35:11;;;;;;;56.90;40.70;;;;;;;4.38;67.80;99632.09;5093426;28;20394;-47
2024/01/13 06:37:37;;;;;;;63.15;46.20;;;;;;;4.37;68.04;99628.69;5093444;28;20498;-44
2024/01/13 06:40:03;;;;;;;77.28;53.38;;;;;;;4.46;68.32;99634.81;5094635;28;20504;-44
2024/01/13 06:42:29;;;;;;;58.53;43.13;;;;;;;4.49;67.40;99631.97;5093282;28;20024;-44
2024/01/13 06:44:55;;;;;;;64.35;46.83;;;;;;;4.50;66.99;99638.78;5094528;28;20032;-44
2024/01/13 06:47:21;;;;;;;61.40;40.20;;;;;;;4.49;67.92;99628.53;5094462;28;20024;-44
2024/01/13 06:49:48;;;;;;;60.65;39.78;;;;;;;4.58;66.90;99625.91;5094489;28;20024;-44
2024/01/13 06:52:14;;;;;;;61.15;40.33;;;;;;;4.20;66.25;99625.00;5094306;28;20016;-45
2024/01/13 06:54:41;;;;;;;60.75;40.53;;;;;;;4.03;67.21;99624.84;5094287;28;20549;-47
2024/01/13 06:57:06;;;;;;;61.70;42.55;;;;;;;3.90;67.70;99627.66;5094582;28;20444;-47
2024/01/13 06:59:33;;;;;;;61.67;44.40;;;;;;;3.88;68.35;99621.78;5094270;28;20099;-47
2024/01/13 07:01:58;;;;;;;62.88;42.33;;;;;;;3.96;68.51;99624.53;5092833;28;20529;-47
2024/01/13 07:04:24;;;;;;;59.45;39.10;;;;;;;3.85;67.79;99629.88;5092902;28;20057;-49
2024/01/13 07:06:50;;;;;;;77.40;58.20;;;;;;;3.64;69.10;99622.97;5093744;28;20020;-49
2024/01/13 07:09:19;;;;;;;62.10;45.45;;;;;;;3.78;69.57;99622.59;5094025;28;20032;-49
2024/01/13 07:11:48;;;;;;;59.35;42.28;;;;;;;3.96;69.19;99627.97;5092638;28;20053;-49
2024/01/13 07:14:14;;;;;;;61.78;40.83;;;;;;;4.03;68.88;99617.84;5093847;28;20024;-49
2024/01/13 07:16:39;;;;;;;60.72;43.35;;;;;;;4.09;69.58;99617.31;5093669;28;20044;-50
2024/01/13 07:19:07;;;;;;;64.07;44.65;;;;;;;4.03;68.36;99623.06;5093895;28;20027;-50
2024/01/13 07:21:33;;;;;;;63.55;46.17;;;;;;;3.74;67.80;99621.22;5093801;28;20031;-49
2024/01/13 07:23:59;;;;;;;64.00;45.15;;;;;;;3.65;69.54;99616.81;5093794;28;20077;-49
2024/01/13 07:26:25;;;;;;;65.20;48.92;;;;;;;3.63;68.93;99618.72;5092346;28;20054;-49
2024/01/13 07:28:50;;;;;;;63.03;45.60;;;;;;;3.69;69.28;99614.78;5093645;28;20091;-49
2024/01/13 07:31:16;;;;;;;69.82;49.13;;;;;;;3.72;68.95;99612.75;5092307;28;20463;-49
2024/01/13 07:33:42;;;;;;;74.28;59.67;;;;;;;3.78;68.70;99611.38;5092147;28;20453;-49
2024/01/13 07:36:08;;;;;;;63.97;48.30;;;;;;;3.94;69.16;99613.47;5093507;28;20069;-49
2024/01/13 07:38:33;;;;;;;68.32;49.85;;;;;;;4.04;68.19;99609.09;5093776;28;20039;-49
2024/01/13 07:40:59;;;;;;;67.85;48.83;;;;;;;3.99;66.81;99603.50;5093416;28;20042;-49
2024/01/13 07:43:25;;;;;;;61.88;46.05;;;;;;;3.86;66.38;99613.31;5093433;28;20024;-49
2024/01/13 07:45:51;;;;;;;63.78;51.63;;;;;;;3.79;67.02;99602.66;5093298;28;20032;-49
2024/01/13 07:48:16;;;;;;;67.63;45.47;;;;;;;3.81;68.04;99603.34;5093319;28;20504;-49
2024/01/13 07:50:42;;;;;;;63.33;46.35;;;;;;;3.98;67.68;99607.03;5093302;28;20398;-49
2024/01/13 07:53:08;;;;;;;62.22;42.40;;;;;;;3.91;66.16;99600.75;5093164;28;20017;-49
2024/01/13 07:55:33;;;;;;;62.80;45.53;;;;;;;3.77;66.24;99607.16;5093188;28;20438;-49
2024/01/13 07:57:59;;;;;;;85.72;65.38;;;;;;;3.71;66.12;99608.50;5091788;28;20539;-49
2024/01/13 08:00:26;;;;;;;68.90;49.88;;;;;;;3.64;66.73;99614.34;5093092;28;20020;-49
2024/01/13 08:02:52;;;;;;;63.97;45.55;;;;;;;3.66;67.13;99615.84;5093035;28;20027;-48
2024/01/13 08:05:17;;;;;;;58.38;40.95;;;;;;;3.74;67.14;99610.84;5091675;28;20561;-48
2024/01/13 08:07:44;;;;;;;64.20;41.03;;;;;;;3.96;67.15;99619.34;5092953;28;20090;-49
2024/01/13 08:10:10;;;;;;;74.20;54.30;;;;;;;3.97;66.49;99615.81;5092885;28;20028;-49
2024/01/13 08:12:36;;;;;;;63.00;41.92;;;;;;;3.93;65.96;99611.84;5092889;28;20066;-49
2024/01/13 08:15:03;;;;;;;73.60;54.45;;;;;;;3.97;66.17;99610.59;5091134;28;20034;-50
2024/01/13 08:17:29;;;;;;;71.28;48.72;;;;;;;3.91;65.05;99618.94;5092545;28;20035;-49
2024/01/13 08:19:55;;;;;;;59.15;42.25;;;;;;;3.88;65.53;99621.78;5090982;28;20413;-49
2024/01/13 08:22:21;;;;;;;64.95;42.78;;;;;;;3.86;65.20;99621.09;5092660;28;20027;-49
2024/01/13 08:24:47;;;;;;;57.88;40.70;;;;;;;3.93;66.52;99620.44;5091289;28;20024;-49
2024/01/13 08:27:12;;;;;;;63.88;44.00;;;;;;;4.06;67.02;99617.56;5092579;28;20012;-49
2024/01/13 08:29:38;;;;;;;64.45;43.80;;;;;;;4.17;66.63;99620.06;5091231;28;20482;-49
2024/01/13 08:32:04;;;;;;;68.60;41.63;;;;;;;4.14;67.05;99615.13;5092485;28;20388;-47
2024/01/13 08:34:30;;;;;;;62.10;45.03;;;;;;;4.22;65.78;99618.81;5092400;28;20020;-47
2024/01/13 08:36:55;;;;;;;64.50;44.80;;;;;;;4.13;66.03;99626.47;5092355;28;20020;-47
2024/01/13 08:39:22;;;;;;;61.40;46.33;;;;;;;4.08;65.42;99625.22;5092411;28;20478;-47
2024/01/13 08:41:47;;;;;;;65.20;45.58;;;;;;;4.15;66.07;99623.75;5092331;28;20023;-47
2024/01/13 08:44:15;;;;;;;62.42;45.63;;;;;;;4.26;65.68;99615.00;5092296;28;20024;-47
2024/01/13 08:46:41;;;;;;;69.68;45.42;;;;;;;4.33;65.44;99621.31;5092258;28;20024;-47
2024/01/13 08:49:08;;;;;;;66.88;47.38;;;;;;;4.25;65.43;99621.16;5090914;28;20097;-47
2024/01/13 08:51:34;;;;;;;64.13;43.00;;;;;;;4.19;66.60;99620.75;5092218;28;20394;-47
2024/01/13 08:54:00;;;;;;;71.07;56.00;;;;;;;4.19;65.94;99623.34;5092059;28;20055;-47
2024/01/13 08:56:26;;;;;;;69.03;46.60;;;;;;;4.17;65.51;99621.84;5090783;28;20023;-47
2024/01/13 08:58:52;;;;;;;58.53;41.03;;;;;;;4.31;65.78;99625.81;5092127;28;20028;-47
2024/01/13 09:01:18;;;;;;;67.63;49.85;;;;;;;4.46;65.18;99619.22;5091995;28;20020;-47
2024/01/13 09:03:45;;;;;;;63.97;44.47;;;;;;;4.48;65.60;99619.91;5092056;28;20371;-46
2024/01/13 09:06:12;;;;;;;62.10;45.92;;;;;;;4.44;64.78;99626.34;5091957;28;20099;-49
2024/01/13 09:08:38;;;;;;;64.63;46.92;;;;;;;4.35;63.99;99630.59;5092026;28;20133;-49
2024/01/13 09:11:05;;;;;;;60.80;43.72;;;;;;;4.25;63.93;99628.97;5091930;28;20080;-49
2024/01/13 09:13:30;;;;;;;65.63;47.50;;;;;;;4.21;65.26;99625.81;5091889;28;20016;-47
2024/01/13 09:15:56;;;;;;;71.78;56.83;;;;;;;4.50;65.48;99623.19;5091596;28;20537;-47
2024/01/13 09:18:22;;;;;;;62.60;44.10;;;;;;;4.66;65.69;99619.22;5091891;28;20433;-47
2024/01/13 09:20:48;;;;;;;71.72;51.13;;;;;;;4.78;65.51;99613.72;5091834;28;20513;-47
2024/01/13 09:23:13;;;;;;;66.95;44.70;;;;;;;4.86;65.04;99620.00;5090493;28;20528;-47
2024/01/13 09:25:39;;;;;;;60.33;43.85;;;;;;;5.03;64.78;99616.69;5090440;28;20086;-47
2024/01/13 09:28:05;;;;;;;78.88;63.42;;;;;;;5.01;63.37;99623.81;5091712;28;20435;-47
2024/01/13 09:30:31;;;;;;;61.53;46.92;;;;;;;5.08;62.76;99619.66;5093219;28;20058;-47
2024/01/13 09:32:57;;;;;;;73.40;54.50;;;;;;;5.29;62.52;99618.63;5095834;28;20012;-47
2024/01/13 09:35:22;;;;;;;66.70;45.33;;;;;;;5.33;63.10;99617.38;5095828;28;20020;-47
2024/01/13 09:37:48;;;;;;;67.75;51.72;;;;;;;5.27;63.55;99616.19;5095857;28;20039;-47
2024/01/13 09:40:15;;;;;;;65.40;44.35;;;;;;;5.21;62.95;99621.94;5095827;28;20027;-49
2024/01/13 09:42:59;;;;;;;66.97;45.58;;;;;;;5.17;63.10;99626.63;5095724;28;20032;-47
2024/01/13 09:45:27;;;;;;;65.10;46.00;;;;;;;5.20;62.22;99625.50;5094438;28;20032;-49
2024/01/13 09:47:56;;;;;;;65.47;45.45;;;;;;;5.07;62.43;99623.25;5095582;28;20026;-49
2024/01/13 09:50:25;;;;;;;73.00;49.47;;;;;;;5.16;62.24;99624.16;5095607;28;20028;-49
2024/01/13 09:52:52;;;;;;;63.75;48.72;;;;;;;5.26;62.83;99624.94;5094492;28;20020;-49
2024/01/13 09:55:20;;;;;;;98.32;71.95;;;;;;;5.34;63.34;99627.66;5094268;28;20024;-47
2024/01/13 09:57:45;;;;;;;64.55;46.45;;;;;;;5.40;61.67;99634.88;5094124;28;20032;-47
2024/01/13 10:00:13;;;;;;;67.05;51.88;;;;;;;5.39;61.60;99632.41;5095450;28;20031;-47
2024/01/13 10:02:39;;;;;;;73.00;54.17;;;;;;;5.32;61.76;99636.56;5095410;28;20077;-47
2024/01/13 10:05:05;;;;;;;62.78;45.45;;;;;;;5.15;61.31;99638.13;5093990;28;20032;-47
2024/01/13 10:07:38;;;;;;;60.63;43.38;;;;;;;5.20;61.47;99641.13;5093974;28;20038;-47
2024/01/13 10:10:06;;;;;;;60.05;44.80;;;;;;;5.13;61.00;99632.25;5095251;28;20028;-47
2024/01/13 10:12:31;;;;;;;73.70;50.00;;;;;;;5.18;61.48;99637.84;5093946;28;20042;-47
2024/01/13 10:14:57;;;;;;;66.10;44.85;;;;;;;5.02;59.12;99629.81;5094804;28;20546;-47
2024/01/13 10:17:25;;;;;;;79.47;56.63;;;;;;;4.84;60.21;99627.94;5095202;28;20043;-47
2024/01/13 10:19:51;;;;;;;64.20;46.80;;;;;;;4.88;60.43;99620.69;5095114;28;20067;-47
2024/01/13 10:22:18;;;;;;;61.28;45.95;;;;;;;4.92;58.48;99619.44;5093794;28;20050;-47
2024/01/13 10:24:44;;;;;;;60.15;39.90;;;;;;;4.57;59.06;99615.69;5095066;28;20020;-49
2024/01/13 10:27:10;;;;;;;60.85;42.15;;;;;;;4.65;59.93;99620.16;5094889;28;20028;-49
2024/01/13 10:29:35;;;;;;;62.58;44.38;;;;;;;4.56;59.57;99621.81;5094888;28;20371;-49
2024/01/13 10:32:04;;;;;;;61.58;42.58;;;;;;;4.67;60.48;99620.84;5094812;28;20401;-49
2024/01/13 10:34:30;;;;;;;59.60;40.60;;;;;;;4.73;59.83;99609.91;5094709;28;20401;-47
2024/01/13 10:37:13;;;;;;;62.17;43.35;;;;;;;4.76;59.54;99600.03;5094631;28;20020;-47
2024/01/13 10:39:42;;;;;;;75.68;54.45;;;;;;;5.03;60.18;99603.69;5094780;28;20103;-47
2024/01/13 10:42:15;;;;;;;74.22;54.58;;;;;;;5.23;59.17;99599.19;5093805;28;20028;-47
2024/01/13 10:44:50;;;;;;;77.40;56.63;;;;;;;5.10;58.91;99594.31;5094619;28;20046;-47
2024/01/13 10:47:20;;;;;;;62.40;45.10;;;;;;;5.18;58.66;99598.81;5094938;28;20119;-47
2024/01/13 10:49:50;;;;;;;68.25;47.70;;;;;;;5.10;57.42;99593.50;5094506;28;20017;-47
2024/01/13 10:52:25;;;;;;;67.32;49.47;;;;;;;4.83;58.72;99599.47;5094435;28;20024;-46
2024/01/13 10:54:51;;;;;;;63.47;47.58;;;;;;;5.04;58.92;99596.69;5094354;28;20367;-47
2024/01/13 10:57:18;;;;;;;59.88;39.70;;;;;;;5.24;57.91;99593.03;5094317;28;20027;-47
2024/01/13 10:59:46;;;;;;;60.47;40.90;;;;;;;5.22;56.38;99594.16;5094331;28;20024;-49
2024/01/13 11:02:12;;;;;;;60.15;40.63;;;;;;;4.92;57.99;99594.25;5094105;28;20134;-49
2024/01/13 11:04:44;;;;;;;59.60;39.55;;;;;;;5.17;58.16;99591.97;5094112;28;20077;-49
2024/01/13 11:07:09;;;;;;;60.60;40.88;;;;;;;5.21;57.16;99582.91;5094125;28;20036;-49
2024/01/13 11:09:36;;;;;;;61.75;46.33;;;;;;;5.19;57.58;99583.06;5092833;28;20016;-49
2024/01/13 11:12:07;;;;;;;64.80;45.63;;;;;;;4.88;57.85;99576.47;5075979;28;20028;-49
2024/01/13 11:14:41;;;;;;;60.38;42.80;;;;;;;4.96;59.11;99568.78;5094020;28;20028;-49
2024/01/13 11:17:08;;;;;;;60.10;39.20;;;;;;;5.26;58.04;99562.50;5093811;28;20054;-48
2024/01/13 11:19:35;;;;;;;95.68;78.53;;;;;;;5.21;59.00;99564.69;5093920;28;20126;-49